createdAt,value
2019-02-17T00:00:33.326Z,0.58
2019-02-17T00:03:02.409Z,0.59
2019-02-17T00:05:31.290Z,0.56
2019-02-17T00:08:00.187Z,0.64
2019-02-17T00:10:29.110Z,0.66
2019-02-17T00:12:58.059Z,0.61
2019-02-17T00:15:26.995Z,0.65
2019-02-17T00:17:56.202Z,0.75
2019-02-17T00:20:25.085Z,0.82
2019-02-17T00:22:55.077Z,0.80
2019-02-17T00:25:23.915Z,0.72
2019-02-17T00:27:52.924Z,0.65
2019-02-17T00:30:21.876Z,0.67
2019-02-17T00:32:51.213Z,0.70
2019-02-17T00:35:20.219Z,0.60
2019-02-17T00:37:48.986Z,0.60
2019-02-17T00:40:20.869Z,0.66
2019-02-17T00:42:51.524Z,0.61
2019-02-17T00:45:20.451Z,0.51
2019-02-17T00:47:49.269Z,0.53
2019-02-17T00:50:18.149Z,0.53
2019-02-17T00:52:47.167Z,0.73
2019-02-17T00:55:16.111Z,0.64
2019-02-17T00:57:45.001Z,0.29
2019-02-17T01:00:14.354Z,0.14
2019-02-17T01:02:43.273Z,-0.04
2019-02-17T01:05:12.260Z,-0.02
2019-02-17T01:07:41.046Z,-0.03
2019-02-17T01:10:10.060Z,-0.13
2019-02-17T01:12:39.044Z,-0.15
2019-02-17T01:15:08.715Z,-0.22
2019-02-17T01:17:37.606Z,-0.27
2019-02-17T01:20:07.019Z,-0.27
2019-02-17T01:22:35.798Z,-0.22
2019-02-17T01:25:05.886Z,-0.11
2019-02-17T01:27:34.753Z,-0.17
2019-02-17T01:30:03.889Z,-0.13
2019-02-17T01:32:32.792Z,0.02
2019-02-17T01:35:01.785Z,-0.11
2019-02-17T01:37:30.692Z,-0.18
2019-02-17T01:39:59.515Z,-0.05
2019-02-17T01:42:28.456Z,0.04
2019-02-17T01:44:57.352Z,0.13
2019-02-17T01:47:26.177Z,-0.08
2019-02-17T01:49:55.100Z,-0.13
2019-02-17T01:52:23.882Z,0.01
2019-02-17T01:54:52.808Z,0.07
2019-02-17T01:57:21.798Z,0.15
2019-02-17T01:59:50.702Z,0.09
2019-02-17T02:02:19.594Z,-0.02
2019-02-17T02:04:48.462Z,-0.07
2019-02-17T02:07:17.330Z,-0.21
2019-02-17T02:09:46.278Z,-0.25
2019-02-17T02:12:15.239Z,-0.23
2019-02-17T02:14:46.098Z,-0.20
2019-02-17T02:17:15.015Z,-0.16
2019-02-17T02:19:43.969Z,-0.02
2019-02-17T02:22:12.881Z,-0.07
2019-02-17T02:24:41.920Z,-0.10
2019-02-17T02:27:10.800Z,0.31
2019-02-17T02:29:41.318Z,0.27
2019-02-17T02:32:10.336Z,0.27
2019-02-17T02:34:39.184Z,0.27
2019-02-17T02:37:08.098Z,0.19
2019-02-17T02:39:36.931Z,0.07
2019-02-17T02:42:05.906Z,0.42
2019-02-17T02:44:34.803Z,0.17
2019-02-17T02:47:03.805Z,0.03
2019-02-17T02:49:32.816Z,-0.05
2019-02-17T02:52:01.771Z,-0.08
2019-02-17T02:54:30.693Z,-0.07
2019-02-17T02:56:59.667Z,0.01
2019-02-17T02:59:28.669Z,0.03
2019-02-17T03:01:57.569Z,0.05
2019-02-17T03:04:26.455Z,0.04
2019-02-17T03:07:04.302Z,-0.13
2019-02-17T03:09:33.219Z,-0.24
2019-02-17T03:12:02.149Z,-0.29
2019-02-17T03:14:31.146Z,-0.34
2019-02-17T03:17:00.886Z,-0.39
2019-02-17T03:19:29.872Z,-0.47
2019-02-17T03:21:58.775Z,-0.55
2019-02-17T03:24:27.550Z,-0.62
2019-02-17T03:26:56.460Z,-0.71
2019-02-17T03:29:25.505Z,-0.81
2019-02-17T03:31:54.369Z,-0.90
2019-02-17T03:34:23.267Z,-0.96
2019-02-17T03:36:52.078Z,-0.82
2019-02-17T03:39:20.972Z,-0.99
2019-02-17T03:41:49.865Z,-1.04
2019-02-17T03:44:18.781Z,-1.04
2019-02-17T03:46:47.822Z,-1.04
2019-02-17T03:49:16.739Z,-1.04
2019-02-17T03:51:45.710Z,-0.96
2019-02-17T03:54:14.705Z,-1.04
2019-02-17T03:56:43.735Z,-1.03
2019-02-17T03:59:12.511Z,-1.12
2019-02-17T04:01:41.505Z,-1.14
2019-02-17T04:04:10.905Z,-1.21
2019-02-17T04:06:39.869Z,-1.21
2019-02-17T04:09:09.278Z,-1.22
2019-02-17T04:11:38.194Z,-1.23
2019-02-17T04:14:07.204Z,-1.12
2019-02-17T04:16:36.145Z,-0.99
2019-02-17T04:19:05.302Z,-0.90
2019-02-17T04:21:34.233Z,-0.85
2019-02-17T04:24:03.313Z,-0.82
2019-02-17T04:26:32.215Z,-0.86
2019-02-17T04:29:01.126Z,-0.79
2019-02-17T04:31:30.029Z,-0.84
2019-02-17T04:33:59.012Z,-0.95
2019-02-17T04:36:27.922Z,-0.98
2019-02-17T04:38:56.819Z,-0.98
2019-02-17T04:41:25.801Z,-0.96
2019-02-17T04:43:54.719Z,-0.90
2019-02-17T04:46:23.597Z,-0.88
2019-02-17T04:48:52.460Z,-0.91
2019-02-17T04:51:21.282Z,-0.96
2019-02-17T04:53:50.665Z,-1.04
2019-02-17T04:56:19.562Z,-1.07
2019-02-17T04:58:48.590Z,-1.11
2019-02-17T05:01:17.458Z,-1.16
2019-02-17T05:03:46.456Z,-1.17
2019-02-17T05:06:15.398Z,-1.25
2019-02-17T05:08:44.316Z,-1.31
2019-02-17T05:11:14.881Z,-1.31
2019-02-17T05:13:43.742Z,-1.32
2019-02-17T05:16:12.759Z,-1.31
2019-02-17T05:18:41.719Z,-1.28
2019-02-17T05:21:10.647Z,-1.28
2019-02-17T05:23:39.508Z,-1.32
2019-02-17T05:26:08.545Z,-1.22
2019-02-17T05:28:37.385Z,-1.23
2019-02-17T05:31:06.407Z,-1.19
2019-02-17T05:33:35.327Z,-1.23
2019-02-17T05:36:04.150Z,-1.30
2019-02-17T05:38:33.051Z,-1.18
2019-02-17T05:41:02.021Z,-1.19
2019-02-17T05:43:30.909Z,-1.13
2019-02-17T05:45:59.812Z,-1.17
2019-02-17T05:48:29.441Z,-1.18
2019-02-17T05:50:58.436Z,-1.24
2019-02-17T05:53:27.390Z,-1.26
2019-02-17T05:55:56.306Z,-1.29
2019-02-17T05:58:25.285Z,-1.30
2019-02-17T06:01:03.391Z,-1.30
2019-02-17T06:03:24.927Z,-1.33
2019-02-17T06:05:53.844Z,-1.41
2019-02-17T06:08:22.872Z,-1.26
2019-02-17T06:10:51.715Z,-1.14
2019-02-17T06:13:20.610Z,-1.20
2019-02-17T06:15:49.641Z,-1.30
2019-02-17T06:18:18.509Z,-1.29
2019-02-17T06:20:47.487Z,-1.33
2019-02-17T06:23:16.328Z,-1.40
2019-02-17T06:25:45.331Z,-1.50
2019-02-17T06:28:14.228Z,-1.55
2019-02-17T06:30:43.191Z,-1.58
2019-02-17T06:33:12.138Z,-1.49
2019-02-17T06:35:41.025Z,-1.49
2019-02-17T06:38:09.860Z,-1.53
2019-02-17T06:40:38.701Z,-1.53
2019-02-17T06:43:07.601Z,-1.54
2019-02-17T06:45:36.515Z,-1.58
2019-02-17T06:48:05.411Z,-1.51
2019-02-17T06:50:34.346Z,-1.50
2019-02-17T06:53:03.209Z,-1.46
2019-02-17T06:55:54.164Z,-1.40
2019-02-17T06:58:23.041Z,-1.29
2019-02-17T07:00:54.176Z,-1.21
2019-02-17T07:03:23.137Z,-1.20
2019-02-17T07:06:08.742Z,-1.16
2019-02-17T07:08:37.522Z,-1.06
2019-02-17T07:11:06.400Z,-1.03
2019-02-17T07:13:36.502Z,-0.94
2019-02-17T07:16:05.754Z,-0.87
2019-02-17T07:18:34.668Z,-0.91
2019-02-17T07:21:03.643Z,-0.91
2019-02-17T07:23:32.443Z,-0.84
2019-02-17T07:26:01.476Z,-0.68
2019-02-17T07:28:30.710Z,-0.62
2019-02-17T07:30:59.567Z,-0.61
2019-02-17T07:33:28.480Z,-0.56
2019-02-17T07:35:57.506Z,-0.50
2019-02-17T07:38:26.378Z,-0.42
2019-02-17T07:40:55.193Z,-0.33
2019-02-17T07:43:24.040Z,-0.25
2019-02-17T07:45:52.961Z,-0.14
2019-02-17T07:48:21.915Z,-0.05
2019-02-17T07:50:50.922Z,0.04
2019-02-17T07:53:19.789Z,0.17
2019-02-17T07:55:48.584Z,0.26
2019-02-17T07:58:17.360Z,0.37
2019-02-17T08:00:47.218Z,0.45
2019-02-17T08:03:16.090Z,0.57
2019-02-17T08:05:45.210Z,0.63
2019-02-17T08:08:14.124Z,0.77
2019-02-17T08:10:43.050Z,0.85
2019-02-17T08:13:12.062Z,0.93
2019-02-17T08:15:41.044Z,0.96
2019-02-17T08:18:09.880Z,1.12
2019-02-17T08:20:38.942Z,1.32
2019-02-17T08:23:07.796Z,1.38
2019-02-17T08:25:36.694Z,1.32
2019-02-17T08:28:05.758Z,1.48
2019-02-17T08:30:37.869Z,1.56
2019-02-17T08:33:06.623Z,1.75
2019-02-17T08:35:35.652Z,1.70
2019-02-17T08:38:04.505Z,1.75
2019-02-17T08:40:33.567Z,1.94
2019-02-17T08:43:02.425Z,1.95
2019-02-17T08:45:31.391Z,2.03
2019-02-17T08:48:00.187Z,2.10
2019-02-17T08:50:29.297Z,2.16
2019-02-17T08:52:58.409Z,2.24
2019-02-17T08:55:27.233Z,2.32
2019-02-17T08:57:56.062Z,2.32
2019-02-17T09:00:24.946Z,2.30
2019-02-17T09:02:53.867Z,2.34
2019-02-17T09:05:23.129Z,2.62
2019-02-17T09:07:52.145Z,2.81
2019-02-17T09:10:21.215Z,2.70
2019-02-17T09:12:50.011Z,2.83
2019-02-17T09:15:19.969Z,2.78
2019-02-17T09:17:48.968Z,2.76
2019-02-17T09:20:17.975Z,2.90
2019-02-17T09:22:46.934Z,2.80
2019-02-17T09:25:16.014Z,2.66
2019-02-17T09:27:44.990Z,2.95
2019-02-17T09:30:15.681Z,3.04
2019-02-17T09:32:44.717Z,3.28
2019-02-17T09:35:13.659Z,3.47
2019-02-17T09:37:42.592Z,3.42
2019-02-17T09:40:12.065Z,3.58
2019-02-17T09:42:41.309Z,3.65
2019-02-17T09:45:11.900Z,3.63
2019-02-17T09:47:40.943Z,3.68
2019-02-17T09:50:11.807Z,3.72
2019-02-17T09:52:41.207Z,4.02
2019-02-17T09:55:10.182Z,4.14
2019-02-17T09:57:39.903Z,4.27
2019-02-17T10:00:10.570Z,4.43
2019-02-17T10:02:39.548Z,4.61
2019-02-17T10:05:08.768Z,4.63
2019-02-17T10:07:37.727Z,4.87
2019-02-17T10:10:08.470Z,4.86
2019-02-17T10:12:37.381Z,5.02
2019-02-17T10:15:07.115Z,5.04
2019-02-17T10:17:36.157Z,5.20
2019-02-17T10:20:05.708Z,5.42
2019-02-17T10:22:34.639Z,5.36
2019-02-17T10:25:03.832Z,5.44
2019-02-17T10:27:32.806Z,5.39
2019-02-17T10:30:01.678Z,5.36
2019-02-17T10:32:37.265Z,5.37
2019-02-17T10:35:01.175Z,5.54
2019-02-17T10:37:30.702Z,5.81
2019-02-17T10:39:59.787Z,6.46
2019-02-17T10:42:28.694Z,6.99
2019-02-17T10:44:57.606Z,6.99
2019-02-17T10:47:26.662Z,6.60
2019-02-17T10:49:55.671Z,6.63
2019-02-17T10:52:25.178Z,6.48
2019-02-17T10:54:54.348Z,6.53
2019-02-17T10:57:23.427Z,6.73
2019-02-17T10:59:52.439Z,6.70
2019-02-17T11:02:21.290Z,6.52
2019-02-17T11:04:50.345Z,6.42
2019-02-17T11:07:19.213Z,6.55
2019-02-17T11:09:48.163Z,6.94
2019-02-17T11:12:17.129Z,6.88
2019-02-17T11:14:46.103Z,7.10
2019-02-17T11:17:15.150Z,7.08
2019-02-17T11:19:44.187Z,7.25
2019-02-17T11:22:22.735Z,7.22
2019-02-17T11:24:43.880Z,7.29
2019-02-17T11:27:12.824Z,7.36
2019-02-17T11:29:41.887Z,7.44
2019-02-17T11:32:10.935Z,7.53
2019-02-17T11:34:40.026Z,7.56
2019-02-17T11:37:09.128Z,7.61
2019-02-17T11:39:38.044Z,7.79
2019-02-17T11:42:06.987Z,7.81
2019-02-17T11:44:35.888Z,7.86
2019-02-17T11:47:07.252Z,7.97
2019-02-17T11:49:35.747Z,7.92
2019-02-17T11:52:04.802Z,8.23
2019-02-17T11:54:33.985Z,8.28
2019-02-17T11:57:03.495Z,8.33
2019-02-17T11:59:32.463Z,8.31
2019-02-17T12:02:01.271Z,8.43
2019-02-17T12:04:30.192Z,8.63
2019-02-17T12:07:00.363Z,8.70
2019-02-17T12:09:29.702Z,8.49
2019-02-17T12:11:58.727Z,8.64
2019-02-17T12:14:32.808Z,8.79
2019-02-17T12:17:01.806Z,8.81
2019-02-17T12:19:30.800Z,8.72
2019-02-17T12:22:21.862Z,8.87
2019-02-17T12:25:15.876Z,8.87
2019-02-17T12:27:55.282Z,8.86
2019-02-17T12:30:25.537Z,9.09
2019-02-17T12:32:54.640Z,9.21
2019-02-17T12:35:23.844Z,9.36
2019-02-17T12:37:52.873Z,9.55
2019-02-17T12:40:21.828Z,9.60
2019-02-17T12:42:51.184Z,9.80
2019-02-17T12:45:20.188Z,9.70
2019-02-17T12:47:57.561Z,9.90
2019-02-17T12:50:21.753Z,9.94
2019-02-17T12:52:51.065Z,9.91
2019-02-17T12:55:19.951Z,9.96
2019-02-17T12:57:48.881Z,10.12
2019-02-17T13:00:18.423Z,10.16
2019-02-17T13:02:47.298Z,10.25
2019-02-17T13:05:16.469Z,10.27
2019-02-17T13:07:45.365Z,10.20
2019-02-17T13:10:14.363Z,10.44
2019-02-17T13:12:43.187Z,10.60
2019-02-17T13:15:12.377Z,10.59
2019-02-17T13:17:41.370Z,10.61
2019-02-17T13:20:11.766Z,10.69
2019-02-17T13:22:40.819Z,10.60
2019-02-17T13:25:10.918Z,10.70
2019-02-17T13:27:41.045Z,10.79
2019-02-17T13:30:16.120Z,11.02
2019-02-17T13:32:46.186Z,11.13
2019-02-17T13:35:15.451Z,11.18
2019-02-17T13:37:44.431Z,11.38
2019-02-17T13:40:13.819Z,11.45
2019-02-17T13:42:42.781Z,11.56
2019-02-17T13:45:12.691Z,11.71
2019-02-17T13:47:41.736Z,11.89
2019-02-17T13:50:11.910Z,12.18
2019-02-17T13:52:40.901Z,12.61
2019-02-17T13:55:10.556Z,13.13
2019-02-17T13:57:39.510Z,13.71
2019-02-17T14:00:13.863Z,14.16
2019-02-17T14:02:42.839Z,14.44
2019-02-17T14:05:11.918Z,14.58
2019-02-17T14:07:40.807Z,15.16
2019-02-17T14:10:10.517Z,15.18
2019-02-17T14:12:39.734Z,14.92
2019-02-17T14:15:11.513Z,15.49
2019-02-17T14:17:40.437Z,15.61
2019-02-17T14:20:10.098Z,15.62
2019-02-17T14:22:39.099Z,15.70
2019-02-17T14:25:10.820Z,15.49
2019-02-17T14:27:39.322Z,15.44
2019-02-17T14:30:10.132Z,15.61
2019-02-17T14:32:39.065Z,15.73
2019-02-17T14:35:08.089Z,16.01
2019-02-17T14:37:37.012Z,16.44
2019-02-17T14:40:06.300Z,15.84
2019-02-17T14:42:35.579Z,16.09
2019-02-17T14:45:04.708Z,16.42
2019-02-17T14:47:33.521Z,16.70
2019-02-17T14:50:02.461Z,16.33
2019-02-17T14:52:31.340Z,16.82
2019-02-17T14:55:00.332Z,16.70
2019-02-17T14:57:29.189Z,16.58
2019-02-17T14:59:58.462Z,16.85
2019-02-17T15:02:27.373Z,16.71
2019-02-17T15:04:56.353Z,16.99
2019-02-17T15:07:25.392Z,16.87
2019-02-17T15:09:54.206Z,17.12
2019-02-17T15:12:23.354Z,17.30
2019-02-17T15:14:52.294Z,17.15
2019-02-17T15:17:21.118Z,17.14
2019-02-17T15:19:50.030Z,17.25
2019-02-17T15:22:18.974Z,17.61
2019-02-17T15:24:48.126Z,17.57
2019-02-17T15:27:17.031Z,17.06
2019-02-17T15:29:45.953Z,16.72
2019-02-17T15:32:14.933Z,16.90
2019-02-17T15:34:43.760Z,16.97
2019-02-17T15:37:12.620Z,16.90
2019-02-17T15:39:41.619Z,16.43
2019-02-17T15:42:10.551Z,16.43
2019-02-17T15:44:39.869Z,16.11
2019-02-17T15:47:08.836Z,15.99
2019-02-17T15:49:39.884Z,16.23
2019-02-17T15:52:08.472Z,16.42
2019-02-17T15:54:37.357Z,16.52
2019-02-17T15:57:06.181Z,15.96
2019-02-17T15:59:35.129Z,15.50
2019-02-17T16:02:04.154Z,15.33
2019-02-17T16:04:33.097Z,15.13
2019-02-17T16:07:01.959Z,14.99
2019-02-17T16:09:30.890Z,14.73
2019-02-17T16:12:01.236Z,14.42
2019-02-17T16:14:30.428Z,14.25
2019-02-17T16:16:59.325Z,14.24
2019-02-17T16:19:28.269Z,14.07
2019-02-17T16:21:57.192Z,13.77
2019-02-17T16:24:26.100Z,13.35
2019-02-17T16:26:54.997Z,12.88
2019-02-17T16:29:23.868Z,12.59
2019-02-17T16:31:53.062Z,12.22
2019-02-17T16:34:22.084Z,12.00
2019-02-17T16:36:51.045Z,11.73
2019-02-17T16:39:20.056Z,11.53
2019-02-17T16:41:49.058Z,11.37
2019-02-17T16:44:17.857Z,11.35
2019-02-17T16:46:46.839Z,11.05
2019-02-17T16:49:15.658Z,10.89
2019-02-17T16:51:44.511Z,10.81
2019-02-17T16:54:13.706Z,10.52
2019-02-17T16:56:42.789Z,10.29
2019-02-17T16:59:11.698Z,10.12
2019-02-17T17:01:40.769Z,9.88
2019-02-17T17:04:10.720Z,9.72
2019-02-17T17:06:39.747Z,9.56
2019-02-17T17:09:09.357Z,9.33
2019-02-17T17:11:38.347Z,9.12
2019-02-17T17:14:08.949Z,8.92
2019-02-17T17:16:37.957Z,8.71
2019-02-17T17:19:07.067Z,8.62
2019-02-17T17:21:35.981Z,8.51
2019-02-17T17:24:05.038Z,8.41
2019-02-17T17:26:33.922Z,8.35
2019-02-17T17:29:02.970Z,8.31
2019-02-17T17:31:31.927Z,8.26
2019-02-17T17:34:00.903Z,8.23
2019-02-17T17:36:29.795Z,8.17
2019-02-17T17:38:58.751Z,8.02
2019-02-17T17:41:27.763Z,7.81
2019-02-17T17:43:56.655Z,7.89
2019-02-17T17:46:25.665Z,8.12
2019-02-17T17:48:54.594Z,8.03
2019-02-17T17:51:23.486Z,8.24
2019-02-17T17:53:52.507Z,7.88
2019-02-17T17:56:21.391Z,7.60
2019-02-17T17:58:50.313Z,7.35
2019-02-17T18:01:19.303Z,7.18
2019-02-17T18:03:48.804Z,7.14
2019-02-17T18:06:18.238Z,7.03
2019-02-17T18:12:33.638Z,6.72
2019-02-17T18:15:02.644Z,6.54
2019-02-17T18:17:31.543Z,6.43
2019-02-17T18:20:00.500Z,6.32
2019-02-17T18:22:29.411Z,6.43
2019-02-17T18:24:58.217Z,6.26
2019-02-17T18:27:27.188Z,6.29
2019-02-17T18:29:56.124Z,6.32
2019-02-17T18:32:25.156Z,6.24
2019-02-17T18:34:53.981Z,6.28
2019-02-17T18:37:22.800Z,6.36
2019-02-17T18:39:51.643Z,6.13
2019-02-17T18:42:20.547Z,5.92
2019-02-17T18:44:49.378Z,5.80
2019-02-17T18:47:19.928Z,5.82
2019-02-17T18:49:48.792Z,5.71
2019-02-17T18:52:17.612Z,5.69
2019-02-17T18:54:46.526Z,5.98
2019-02-17T18:57:15.332Z,5.86
2019-02-17T18:59:44.329Z,5.70
2019-02-17T19:02:13.123Z,5.61
2019-02-17T19:04:42.156Z,5.61
2019-02-17T19:07:11.072Z,5.32
2019-02-17T19:09:40.019Z,5.12
2019-02-17T19:12:09.000Z,5.21
2019-02-17T19:14:39.342Z,5.14
2019-02-17T19:17:08.435Z,4.98
2019-02-17T19:19:37.368Z,4.89
2019-02-17T19:22:06.390Z,4.81
2019-02-17T19:24:36.856Z,4.66
2019-02-17T19:27:07.605Z,4.52
2019-02-17T19:29:37.144Z,4.51
2019-02-17T19:32:41.708Z,4.60
2019-02-17T19:35:12.047Z,4.47
2019-02-17T19:37:43.229Z,4.42
2019-02-17T19:40:15.285Z,4.25
2019-02-17T19:42:44.583Z,4.09
2019-02-17T19:45:14.227Z,3.97
2019-02-17T19:47:43.864Z,4.08
2019-02-17T19:50:14.221Z,4.05
2019-02-17T19:52:43.227Z,4.03
2019-02-17T19:55:12.253Z,4.06
2019-02-17T19:57:41.197Z,3.99
2019-02-17T20:00:11.864Z,4.04
2019-02-17T20:03:02.718Z,3.86
2019-02-17T20:05:35.384Z,3.92
2019-02-17T20:08:04.476Z,3.75
2019-02-17T20:10:33.543Z,3.56
2019-02-17T20:13:02.492Z,3.50
2019-02-17T20:15:32.559Z,3.39
2019-02-17T20:18:01.428Z,3.34
2019-02-17T20:20:30.368Z,3.54
2019-02-17T20:22:59.292Z,3.62
2019-02-17T20:25:28.217Z,3.46
2019-02-17T20:27:57.002Z,3.44
2019-02-17T20:30:25.917Z,3.34
2019-02-17T20:32:54.843Z,3.18
2019-02-17T20:35:24.248Z,3.07
2019-02-17T20:37:53.272Z,2.95
2019-02-17T20:40:22.249Z,2.89
2019-02-17T20:42:51.269Z,2.83
2019-02-17T20:45:20.190Z,2.89
2019-02-17T20:47:49.312Z,2.89
2019-02-17T20:50:19.581Z,2.78
2019-02-17T20:52:48.676Z,2.87
2019-02-17T20:55:17.692Z,2.86
2019-02-17T20:57:46.534Z,2.91
2019-02-17T21:00:16.000Z,2.69
2019-02-17T21:02:44.984Z,2.66
2019-02-17T21:05:13.886Z,2.59
2019-02-17T21:07:42.863Z,2.53
2019-02-17T21:10:11.860Z,2.53
2019-02-17T21:12:40.857Z,2.59
2019-02-17T21:15:10.265Z,2.56
2019-02-17T21:17:39.960Z,2.45
2019-02-17T21:20:09.248Z,2.40
2019-02-17T21:22:38.052Z,2.39
2019-02-17T21:25:07.325Z,2.33
2019-02-17T21:27:36.249Z,2.33
2019-02-17T21:30:05.707Z,2.10
2019-02-17T21:32:34.611Z,2.14
2019-02-17T21:35:03.605Z,2.14
2019-02-17T21:37:32.501Z,2.18
2019-02-17T21:40:01.398Z,2.22
2019-02-17T21:42:30.290Z,2.31
2019-02-17T21:44:59.190Z,2.55
2019-02-17T21:47:28.107Z,2.43
2019-02-17T21:49:57.139Z,2.43
2019-02-17T21:52:26.138Z,2.16
2019-02-17T21:54:54.966Z,1.83
2019-02-17T21:57:24.101Z,1.87
2019-02-17T21:59:53.017Z,1.88
2019-02-17T22:02:21.915Z,1.84
2019-02-17T22:04:50.934Z,1.81
2019-02-17T22:07:19.938Z,1.75
2019-02-17T22:09:48.720Z,1.87
2019-02-17T22:12:17.696Z,1.99
2019-02-17T22:14:46.498Z,1.94
2019-02-17T22:17:15.442Z,1.68
2019-02-17T22:19:44.332Z,1.55
2019-02-17T22:22:13.293Z,1.45
2019-02-17T22:24:42.258Z,1.40
2019-02-17T22:27:11.299Z,1.28
2019-02-17T22:29:40.206Z,1.14
2019-02-17T22:32:09.357Z,1.11
2019-02-17T22:34:38.440Z,1.22
2019-02-17T22:37:07.557Z,1.05
2019-02-17T22:39:36.749Z,0.93
2019-02-17T22:42:05.731Z,0.81
2019-02-17T22:44:34.679Z,0.76
2019-02-17T22:47:03.710Z,0.73
2019-02-17T22:49:32.646Z,0.94
2019-02-17T22:52:01.910Z,1.02
2019-02-17T22:54:30.791Z,0.95
2019-02-17T22:57:01.710Z,0.96
2019-02-17T22:59:30.666Z,0.94
2019-02-17T23:01:59.652Z,0.92
2019-02-17T23:04:28.575Z,0.85
2019-02-17T23:06:57.683Z,1.03
2019-02-17T23:09:26.699Z,0.89
2019-02-17T23:11:55.734Z,0.87
2019-02-17T23:14:24.755Z,0.73
2019-02-17T23:16:53.668Z,0.59
2019-02-17T23:19:22.564Z,0.61
2019-02-17T23:21:51.694Z,0.52
2019-02-17T23:24:20.715Z,0.58
2019-02-17T23:26:49.507Z,0.67
2019-02-17T23:29:18.373Z,0.67
2019-02-17T23:31:47.372Z,0.72
2019-02-17T23:34:16.259Z,0.72
2019-02-17T23:36:45.297Z,0.68
2019-02-17T23:39:14.218Z,0.75
2019-02-17T23:41:43.128Z,0.72
2019-02-17T23:44:12.019Z,0.78
2019-02-17T23:46:40.969Z,0.75
2019-02-17T23:49:09.805Z,0.73
2019-02-17T23:51:38.642Z,0.64
2019-02-17T23:54:07.635Z,0.57
2019-02-17T23:56:36.649Z,0.72
2019-02-17T23:59:05.766Z,0.79
